sensor_id;sensor_type;location;lat;lon;timestamp;temperature;humidity
47576;DHT22;33304;52.456;13.328;2023-04-01T00:02:22;9.60;99.90
47576;DHT22;33304;52.456;13.328;2023-04-01T00:04:50;9.60;99.90
47576;DHT22;33304;52.456;13.328;2023-04-01T00:07:18;9.70;99.90
47576;DHT22;33304;52.456;13.328;2023-04-01T00:09:45;9.70;99.90
47576;DHT22;33304;52.456;13.328;2023-04-01T00:12:12;9.60;99.90
47576;DHT22;33304;52.456;13.328;2023-04-01T00:14:39;9.60;99.90
47576;DHT22;33304;52.456;13.328;2023-04-01T00:17:06;9.60;99.90
47576;DHT22;33304;52.456;13.328;2023-04-01T00:19:33;9.70;99.90
47576;DHT22;33304;52.456;13.328;2023-04-01T00:22:02;9.60;99.90
47576;DHT22;33304;52.456;13.328;2023-04-01T00:24:29;9.70;99.90
47576;DHT22;33304;52.456;13.328;2023-04-01T00:26:57;9.70;99.90
47576;DHT22;33304;52.456;13.328;2023-04-01T00:29:24;9.60;99.90
47576;DHT22;33304;52.456;13.328;2023-04-01T00:31:55;9.40;99.90
47576;DHT22;33304;52.456;13.328;2023-04-01T00:34:23;9.60;99.90
47576;DHT22;33304;52.456;13.328;2023-04-01T00:36:50;9.70;99.90
47576;DHT22;33304;52.456;13.328;2023-04-01T00:39:19;9.70;99.90
47576;DHT22;33304;52.456;13.328;2023-04-01T00:41:47;9.70;99.90
47576;DHT22;33304;52.456;13.328;2023-04-01T00:44:16;9.70;99.90
47576;DHT22;33304;52.456;13.328;2023-04-01T00:46:44;9.70;99.90
47576;DHT22;33304;52.456;13.328;2023-04-01T00:49:12;9.70;99.90
47576;DHT22;33304;52.456;13.328;2023-04-01T00:51:41;9.60;99.90
47576;DHT22;33304;52.456;13.328;2023-04-01T00:54:09;9.60;99.90
47576;DHT22;33304;52.456;13.328;2023-04-01T00:56:42;9.60;99.90
47576;DHT22;33304;52.456;13.328;2023-04-01T00:59:18;9.60;99.90
47576;DHT22;33304;52.456;13.328;2023-04-01T01:01:46;9.70;99.90
47576;DHT22;33304;52.456;13.328;2023-04-01T01:04:25;9.70;99.90
47576;DHT22;33304;52.456;13.328;2023-04-01T01:07:00;9.60;99.90
47576;DHT22;33304;52.456;13.328;2023-04-01T01:09:38;9.70;99.90
47576;DHT22;33304;52.456;13.328;2023-04-01T01:12:12;9.70;99.90
47576;DHT22;33304;52.456;13.328;2023-04-01T01:14:49;9.60;99.90
47576;DHT22;33304;52.456;13.328;2023-04-01T01:17:25;9.70;99.90
47576;DHT22;33304;52.456;13.328;2023-04-01T01:20:24;9.70;99.90
47576;DHT22;33304;52.456;13.328;2023-04-01T01:23:33;9.80;99.90
47576;DHT22;33304;52.456;13.328;2023-04-01T01:26:34;9.70;99.90
47576;DHT22;33304;52.456;13.328;2023-04-01T01:29:16;9.70;99.90
47576;DHT22;33304;52.456;13.328;2023-04-01T01:31:52;9.70;99.90
47576;DHT22;33304;52.456;13.328;2023-04-01T01:34:23;9.70;99.90
47576;DHT22;33304;52.456;13.328;2023-04-01T01:37:00;9.70;99.90
47576;DHT22;33304;52.456;13.328;2023-04-01T01:39:31;9.60;99.90
47576;DHT22;33304;52.456;13.328;2023-04-01T01:42:03;9.60;99.90
47576;DHT22;33304;52.456;13.328;2023-04-01T01:44:32;9.60;99.90
47576;DHT22;33304;52.456;13.328;2023-04-01T01:47:00;9.60;99.90
47576;DHT22;33304;52.456;13.328;2023-04-01T01:49:28;9.40;99.90
47576;DHT22;33304;52.456;13.328;2023-04-01T01:51:58;9.50;99.90
47576;DHT22;33304;52.456;13.328;2023-04-01T01:54:25;9.30;99.90
47576;DHT22;33304;52.456;13.328;2023-04-01T01:56:59;9.40;99.90
47576;DHT22;33304;52.456;13.328;2023-04-01T01:59:32;9.50;99.90
47576;DHT22;33304;52.456;13.328;2023-04-01T02:02:00;9.60;99.90
47576;DHT22;33304;52.456;13.328;2023-04-01T02:04:34;9.60;99.90
47576;DHT22;33304;52.456;13.328;2023-04-01T02:07:06;9.60;99.90
47576;DHT22;33304;52.456;13.328;2023-04-01T02:09:34;9.60;99.90
47576;DHT22;33304;52.456;13.328;2023-04-01T02:12:05;9.50;99.90
47576;DHT22;33304;52.456;13.328;2023-04-01T02:14:41;9.30;99.90
47576;DHT22;33304;52.456;13.328;2023-04-01T02:17:12;9.40;99.90
47576;DHT22;33304;52.456;13.328;2023-04-01T02:19:43;9.30;99.90
47576;DHT22;33304;52.456;13.328;2023-04-01T02:22:17;9.40;99.90
47576;DHT22;33304;52.456;13.328;2023-04-01T02:24:45;9.30;99.90
47576;DHT22;33304;52.456;13.328;2023-04-01T02:27:12;9.40;99.90
47576;DHT22;33304;52.456;13.328;2023-04-01T02:29:39;9.50;99.90
47576;DHT22;33304;52.456;13.328;2023-04-01T02:32:08;9.40;99.90
47576;DHT22;33304;52.456;13.328;2023-04-01T02:34:36;9.40;99.90
47576;DHT22;33304;52.456;13.328;2023-04-01T02:37:04;9.60;99.90
47576;DHT22;33304;52.456;13.328;2023-04-01T02:39:33;9.50;99.90
47576;DHT22;33304;52.456;13.328;2023-04-01T02:42:00;9.50;99.90
47576;DHT22;33304;52.456;13.328;2023-04-01T02:44:28;9.50;99.90
47576;DHT22;33304;52.456;13.328;2023-04-01T02:46:55;9.50;99.90
47576;DHT22;33304;52.456;13.328;2023-04-01T02:49:23;9.50;99.90
47576;DHT22;33304;52.456;13.328;2023-04-01T02:51:50;9.60;99.90
47576;DHT22;33304;52.456;13.328;2023-04-01T02:54:17;9.60;99.90
47576;DHT22;33304;52.456;13.328;2023-04-01T02:56:46;9.60;99.90
47576;DHT22;33304;52.456;13.328;2023-04-01T02:59:13;9.60;99.90
47576;DHT22;33304;52.456;13.328;2023-04-01T03:01:40;9.60;99.90
47576;DHT22;33304;52.456;13.328;2023-04-01T03:04:08;9.50;99.90
47576;DHT22;33304;52.456;13.328;2023-04-01T03:06:35;9.50;99.90
47576;DHT22;33304;52.456;13.328;2023-04-01T03:09:02;9.60;99.90
47576;DHT22;33304;52.456;13.328;2023-04-01T03:11:29;9.60;99.90
47576;DHT22;33304;52.456;13.328;2023-04-01T03:13:57;9.60;99.90
47576;DHT22;33304;52.456;13.328;2023-04-01T03:16:25;9.60;99.90
47576;DHT22;33304;52.456;13.328;2023-04-01T03:18:52;9.60;99.90
47576;DHT22;33304;52.456;13.328;2023-04-01T03:21:23;9.60;99.90
47576;DHT22;33304;52.456;13.328;2023-04-01T03:23:50;9.60;99.90
47576;DHT22;33304;52.456;13.328;2023-04-01T03:26:17;9.60;99.90
47576;DHT22;33304;52.456;13.328;2023-04-01T03:28:45;9.50;99.90
47576;DHT22;33304;52.456;13.328;2023-04-01T03:31:13;9.50;99.90
47576;DHT22;33304;52.456;13.328;2023-04-01T03:33:47;9.50;99.90
47576;DHT22;33304;52.456;13.328;2023-04-01T03:36:15;9.50;99.90
47576;DHT22;33304;52.456;13.328;2023-04-01T03:38:42;9.60;99.90
47576;DHT22;33304;52.456;13.328;2023-04-01T03:41:14;9.60;99.90
47576;DHT22;33304;52.456;13.328;2023-04-01T03:43:43;9.50;99.90
47576;DHT22;33304;52.456;13.328;2023-04-01T03:46:17;9.50;99.90
47576;DHT22;33304;52.456;13.328;2023-04-01T03:48:44;9.50;99.90
47576;DHT22;33304;52.456;13.328;2023-04-01T03:51:11;9.60;99.90
47576;DHT22;33304;52.456;13.328;2023-04-01T03:53:38;9.70;99.90
47576;DHT22;33304;52.456;13.328;2023-04-01T03:56:07;9.70;99.90
47576;DHT22;33304;52.456;13.328;2023-04-01T03:58:36;9.70;99.90
47576;DHT22;33304;52.456;13.328;2023-04-01T04:01:15;9.60;99.90
47576;DHT22;33304;52.456;13.328;2023-04-01T04:03:43;9.60;99.90
47576;DHT22;33304;52.456;13.328;2023-04-01T04:06:12;9.50;99.90
47576;DHT22;33304;52.456;13.328;2023-04-01T04:08:39;9.80;99.90
47576;DHT22;33304;52.456;13.328;2023-04-01T04:11:07;9.80;99.90
47576;DHT22;33304;52.456;13.328;2023-04-01T04:13:36;9.80;99.90
47576;DHT22;33304;52.456;13.328;2023-04-01T04:16:04;9.80;99.90
47576;DHT22;33304;52.456;13.328;2023-04-01T04:18:34;9.80;99.90
47576;DHT22;33304;52.456;13.328;2023-04-01T04:21:02;9.70;99.90
47576;DHT22;33304;52.456;13.328;2023-04-01T04:23:29;9.70;99.90
47576;DHT22;33304;52.456;13.328;2023-04-01T04:26:00;9.80;99.90
47576;DHT22;33304;52.456;13.328;2023-04-01T04:28:29;9.80;99.90
47576;DHT22;33304;52.456;13.328;2023-04-01T04:30:58;9.90;99.90
47576;DHT22;33304;52.456;13.328;2023-04-01T04:33:26;9.80;99.90
47576;DHT22;33304;52.456;13.328;2023-04-01T04:35:57;9.80;99.90
47576;DHT22;33304;52.456;13.328;2023-04-01T04:38:25;9.70;99.90
47576;DHT22;33304;52.456;13.328;2023-04-01T04:40:53;9.70;99.90
47576;DHT22;33304;52.456;13.328;2023-04-01T04:43:21;9.70;99.90
47576;DHT22;33304;52.456;13.328;2023-04-01T04:45:48;9.60;99.90
47576;DHT22;33304;52.456;13.328;2023-04-01T04:48:16;9.60;99.90
47576;DHT22;33304;52.456;13.328;2023-04-01T04:50:46;9.60;99.90
47576;DHT22;33304;52.456;13.328;2023-04-01T04:53:17;9.60;99.90
47576;DHT22;33304;52.456;13.328;2023-04-01T04:55:45;9.70;99.90
47576;DHT22;33304;52.456;13.328;2023-04-01T04:58:30;9.70;99.90
47576;DHT22;33304;52.456;13.328;2023-04-01T05:00:57;9.60;99.90
47576;DHT22;33304;52.456;13.328;2023-04-01T05:03:29;9.80;99.90
47576;DHT22;33304;52.456;13.328;2023-04-01T05:05:56;9.80;99.90
47576;DHT22;33304;52.456;13.328;2023-04-01T05:08:25;9.80;99.90
47576;DHT22;33304;52.456;13.328;2023-04-01T05:10:52;9.70;99.90
47576;DHT22;33304;52.456;13.328;2023-04-01T05:13:19;9.60;99.90
47576;DHT22;33304;52.456;13.328;2023-04-01T05:15:47;9.60;99.90
47576;DHT22;33304;52.456;13.328;2023-04-01T05:18:15;9.50;99.90
47576;DHT22;33304;52.456;13.328;2023-04-01T05:20:46;9.50;99.90
47576;DHT22;33304;52.456;13.328;2023-04-01T05:23:14;9.60;99.90
47576;DHT22;33304;52.456;13.328;2023-04-01T05:25:43;9.60;99.90
47576;DHT22;33304;52.456;13.328;2023-04-01T05:28:11;9.70;99.90
47576;DHT22;33304;52.456;13.328;2023-04-01T05:30:39;9.70;99.90
47576;DHT22;33304;52.456;13.328;2023-04-01T05:33:24;9.60;99.90
47576;DHT22;33304;52.456;13.328;2023-04-01T05:35:51;9.70;99.90
47576;DHT22;33304;52.456;13.328;2023-04-01T05:38:18;9.60;99.90
47576;DHT22;33304;52.456;13.328;2023-04-01T05:40:47;9.60;99.90
47576;DHT22;33304;52.456;13.328;2023-04-01T05:43:14;9.60;99.90
47576;DHT22;33304;52.456;13.328;2023-04-01T05:45:43;9.50;99.90
47576;DHT22;33304;52.456;13.328;2023-04-01T05:48:13;9.60;99.90
47576;DHT22;33304;52.456;13.328;2023-04-01T05:50:41;9.60;99.90
47576;DHT22;33304;52.456;13.328;2023-04-01T05:53:09;9.70;99.90
47576;DHT22;33304;52.456;13.328;2023-04-01T05:55:38;9.80;99.90
47576;DHT22;33304;52.456;13.328;2023-04-01T05:58:06;9.90;99.90
47576;DHT22;33304;52.456;13.328;2023-04-01T06:00:35;9.90;99.90
47576;DHT22;33304;52.456;13.328;2023-04-01T06:03:02;9.80;99.90
47576;DHT22;33304;52.456;13.328;2023-04-01T06:05:34;9.90;99.90
47576;DHT22;33304;52.456;13.328;2023-04-01T06:08:08;10.00;99.90
47576;DHT22;33304;52.456;13.328;2023-04-01T06:10:46;10.00;99.90
47576;DHT22;33304;52.456;13.328;2023-04-01T06:13:30;9.90;99.90
47576;DHT22;33304;52.456;13.328;2023-04-01T06:16:10;9.80;99.90
47576;DHT22;33304;52.456;13.328;2023-04-01T06:19:10;9.90;99.90
47576;DHT22;33304;52.456;13.328;2023-04-01T06:22:03;9.80;99.90
47576;DHT22;33304;52.456;13.328;2023-04-01T06:24:44;9.90;99.90
47576;DHT22;33304;52.456;13.328;2023-04-01T06:27:24;9.80;99.90
47576;DHT22;33304;52.456;13.328;2023-04-01T06:30:02;9.90;99.90
47576;DHT22;33304;52.456;13.328;2023-04-01T06:32:48;10.00;99.90
47576;DHT22;33304;52.456;13.328;2023-04-01T06:35:32;10.10;99.90
47576;DHT22;33304;52.456;13.328;2023-04-01T06:38:41;10.10;99.90
47576;DHT22;33304;52.456;13.328;2023-04-01T06:41:23;10.20;99.90
47576;DHT22;33304;52.456;13.328;2023-04-01T06:43:59;10.20;99.90
47576;DHT22;33304;52.456;13.328;2023-04-01T06:47:19;10.00;99.90
47576;DHT22;33304;52.456;13.328;2023-04-01T06:50:16;10.10;99.90
47576;DHT22;33304;52.456;13.328;2023-04-01T06:53:10;10.40;99.90
47576;DHT22;33304;52.456;13.328;2023-04-01T06:55:59;10.40;99.90
47576;DHT22;33304;52.456;13.328;2023-04-01T06:58:41;10.50;99.90
47576;DHT22;33304;52.456;13.328;2023-04-01T07:01:12;10.90;99.90
47576;DHT22;33304;52.456;13.328;2023-04-01T07:03:47;10.90;99.90
47576;DHT22;33304;52.456;13.328;2023-04-01T07:06:23;10.70;99.90
47576;DHT22;33304;52.456;13.328;2023-04-01T07:08:55;10.80;99.90
47576;DHT22;33304;52.456;13.328;2023-04-01T07:11:30;11.00;99.90
47576;DHT22;33304;52.456;13.328;2023-04-01T07:14:20;11.20;95.60
47576;DHT22;33304;52.456;13.328;2023-04-01T07:16:52;11.40;90.90
47576;DHT22;33304;52.456;13.328;2023-04-01T07:19:29;11.40;83.80
47576;DHT22;33304;52.456;13.328;2023-04-01T07:22:06;11.30;86.10
47576;DHT22;33304;52.456;13.328;2023-04-01T07:25:02;11.50;84.60
47576;DHT22;33304;52.456;13.328;2023-04-01T07:27:29;11.60;80.50
47576;DHT22;33304;52.456;13.328;2023-04-01T07:29:57;11.80;79.20
47576;DHT22;33304;52.456;13.328;2023-04-01T07:32:33;11.60;78.20
47576;DHT22;33304;52.456;13.328;2023-04-01T07:35:13;11.60;73.80
47576;DHT22;33304;52.456;13.328;2023-04-01T07:37:52;11.60;69.70
47576;DHT22;33304;52.456;13.328;2023-04-01T07:40:28;11.70;67.90
47576;DHT22;33304;52.456;13.328;2023-04-01T07:43:19;11.80;67.00
47576;DHT22;33304;52.456;13.328;2023-04-01T07:46:03;12.10;64.90
47576;DHT22;33304;52.456;13.328;2023-04-01T07:48:39;12.10;62.70
47576;DHT22;33304;52.456;13.328;2023-04-01T07:51:17;12.00;62.10
47576;DHT22;33304;52.456;13.328;2023-04-01T07:53:50;12.30;61.80
47576;DHT22;33304;52.456;13.328;2023-04-01T07:56:23;12.10;61.50
47576;DHT22;33304;52.456;13.328;2023-04-01T07:58:59;12.30;58.50
47576;DHT22;33304;52.456;13.328;2023-04-01T08:01:57;12.30;58.30
47576;DHT22;33304;52.456;13.328;2023-04-01T08:04:35;12.30;56.50
47576;DHT22;33304;52.456;13.328;2023-04-01T08:07:12;12.20;56.40
47576;DHT22;33304;52.456;13.328;2023-04-01T08:10:01;12.20;56.20
47576;DHT22;33304;52.456;13.328;2023-04-01T08:12:58;12.10;56.80
47576;DHT22;33304;52.456;13.328;2023-04-01T08:15:49;12.10;57.00
47576;DHT22;33304;52.456;13.328;2023-04-01T08:18:42;12.00;59.30
47576;DHT22;33304;52.456;13.328;2023-04-01T08:21:14;12.10;56.30
47576;DHT22;33304;52.456;13.328;2023-04-01T08:23:48;12.00;57.50
47576;DHT22;33304;52.456;13.328;2023-04-01T08:26:24;12.00;58.00
47576;DHT22;33304;52.456;13.328;2023-04-01T08:28:56;11.90;58.70
47576;DHT22;33304;52.456;13.328;2023-04-01T08:31:30;11.80;58.40
47576;DHT22;33304;52.456;13.328;2023-04-01T08:34:00;11.90;57.70
47576;DHT22;33304;52.456;13.328;2023-04-01T08:36:33;11.90;58.60
47576;DHT22;33304;52.456;13.328;2023-04-01T08:39:15;11.80;60.60
47576;DHT22;33304;52.456;13.328;2023-04-01T08:45:18;11.70;62.90
47576;DHT22;33304;52.456;13.328;2023-04-01T08:48:12;11.70;63.20
47576;DHT22;33304;52.456;13.328;2023-04-01T08:54:29;12.00;63.20
47576;DHT22;33304;52.456;13.328;2023-04-01T08:57:08;12.20;61.80
47576;DHT22;33304;52.456;13.328;2023-04-01T09:00:11;12.30;62.30
47576;DHT22;33304;52.456;13.328;2023-04-01T09:03:36;12.50;58.40
47576;DHT22;33304;52.456;13.328;2023-04-01T09:06:25;12.50;59.40
47576;DHT22;33304;52.456;13.328;2023-04-01T09:09:18;12.50;58.20
47576;DHT22;33304;52.456;13.328;2023-04-01T09:12:19;12.50;60.30
47576;DHT22;33304;52.456;13.328;2023-04-01T09:15:20;12.30;57.20
47576;DHT22;33304;52.456;13.328;2023-04-01T09:18:29;12.10;56.40
47576;DHT22;33304;52.456;13.328;2023-04-01T09:21:19;11.90;56.60
47576;DHT22;33304;52.456;13.328;2023-04-01T09:24:01;11.70;57.90
47576;DHT22;33304;52.456;13.328;2023-04-01T09:26:58;11.60;59.30
47576;DHT22;33304;52.456;13.328;2023-04-01T09:29:46;11.60;61.30
47576;DHT22;33304;52.456;13.328;2023-04-01T09:32:36;11.50;62.00
47576;DHT22;33304;52.456;13.328;2023-04-01T09:35:21;11.40;62.10
47576;DHT22;33304;52.456;13.328;2023-04-01T09:37:54;11.40;63.10
47576;DHT22;33304;52.456;13.328;2023-04-01T09:40:33;11.20;62.00
47576;DHT22;33304;52.456;13.328;2023-04-01T09:43:21;11.10;62.80
47576;DHT22;33304;52.456;13.328;2023-04-01T09:46:08;11.10;64.60
47576;DHT22;33304;52.456;13.328;2023-04-01T09:49:03;10.90;64.50
47576;DHT22;33304;52.456;13.328;2023-04-01T09:51:39;10.80;64.60
47576;DHT22;33304;52.456;13.328;2023-04-01T09:54:20;10.80;66.10
47576;DHT22;33304;52.456;13.328;2023-04-01T09:57:16;10.70;67.20
47576;DHT22;33304;52.456;13.328;2023-04-01T10:00:15;10.70;70.40
47576;DHT22;33304;52.456;13.328;2023-04-01T10:09:20;10.70;76.40
47576;DHT22;33304;52.456;13.328;2023-04-01T10:12:13;10.70;76.70
47576;DHT22;33304;52.456;13.328;2023-04-01T10:15:18;10.70;76.30
47576;DHT22;33304;52.456;13.328;2023-04-01T10:21:04;10.70;74.70
47576;DHT22;33304;52.456;13.328;2023-04-01T10:23:51;10.70;73.80
47576;DHT22;33304;52.456;13.328;2023-04-01T10:30:19;10.80;73.90
47576;DHT22;33304;52.456;13.328;2023-04-01T10:33:22;10.80;70.20
47576;DHT22;33304;52.456;13.328;2023-04-01T10:36:18;10.70;72.50
47576;DHT22;33304;52.456;13.328;2023-04-01T10:46:08;10.50;76.00
47576;DHT22;33304;52.456;13.328;2023-04-01T10:49:10;10.50;75.40
47576;DHT22;33304;52.456;13.328;2023-04-01T10:52:22;10.50;73.70
47576;DHT22;33304;52.456;13.328;2023-04-01T10:58:44;10.40;71.10
47576;DHT22;33304;52.456;13.328;2023-04-01T11:05:58;10.50;70.00
47576;DHT22;33304;52.456;13.328;2023-04-01T11:09:03;10.50;68.50
47576;DHT22;33304;52.456;13.328;2023-04-01T11:12:09;10.60;68.90
47576;DHT22;33304;52.456;13.328;2023-04-01T11:15:23;10.70;64.20
47576;DHT22;33304;52.456;13.328;2023-04-01T11:24:03;10.80;62.90
47576;DHT22;33304;52.456;13.328;2023-04-01T11:26:48;10.90;63.10
47576;DHT22;33304;52.456;13.328;2023-04-01T11:29:57;10.80;63.80
47576;DHT22;33304;52.456;13.328;2023-04-01T11:32:43;10.90;62.60
47576;DHT22;33304;52.456;13.328;2023-04-01T11:35:32;10.70;59.70
47576;DHT22;33304;52.456;13.328;2023-04-01T11:38:10;10.60;60.90
47576;DHT22;33304;52.456;13.328;2023-04-01T11:40:49;10.40;60.80
47576;DHT22;33304;52.456;13.328;2023-04-01T11:43:49;10.40;60.50
47576;DHT22;33304;52.456;13.328;2023-04-01T11:46:37;10.40;61.00
47576;DHT22;33304;52.456;13.328;2023-04-01T11:49:21;10.30;61.40
47576;DHT22;33304;52.456;13.328;2023-04-01T11:52:40;10.30;61.50
47576;DHT22;33304;52.456;13.328;2023-04-01T11:55:21;10.30;61.90
47576;DHT22;33304;52.456;13.328;2023-04-01T11:58:19;10.40;59.60
47576;DHT22;33304;52.456;13.328;2023-04-01T12:03:46;10.30;59.50
47576;DHT22;33304;52.456;13.328;2023-04-01T12:06:19;10.20;60.10
47576;DHT22;33304;52.456;13.328;2023-04-01T12:08:55;10.20;60.60
47576;DHT22;33304;52.456;13.328;2023-04-01T12:11:34;10.20;61.40
47576;DHT22;33304;52.456;13.328;2023-04-01T12:14:10;10.10;59.70
47576;DHT22;33304;52.456;13.328;2023-04-01T12:16:47;10.10;59.50
47576;DHT22;33304;52.456;13.328;2023-04-01T12:19:23;10.00;59.30
47576;DHT22;33304;52.456;13.328;2023-04-01T12:22:04;10.10;61.00
47576;DHT22;33304;52.456;13.328;2023-04-01T12:24:46;10.00;61.10
47576;DHT22;33304;52.456;13.328;2023-04-01T12:27:31;10.10;60.40
47576;DHT22;33304;52.456;13.328;2023-04-01T12:30:32;9.90;61.10
47576;DHT22;33304;52.456;13.328;2023-04-01T12:36:04;9.90;61.90
47576;DHT22;33304;52.456;13.328;2023-04-01T12:38:42;10.00;63.60
47576;DHT22;33304;52.456;13.328;2023-04-01T12:41:16;10.00;62.30
47576;DHT22;33304;52.456;13.328;2023-04-01T12:44:12;10.00;64.60
47576;DHT22;33304;52.456;13.328;2023-04-01T12:46:59;10.00;61.00
47576;DHT22;33304;52.456;13.328;2023-04-01T12:49:39;9.90;60.00
47576;DHT22;33304;52.456;13.328;2023-04-01T12:52:13;9.90;60.60
47576;DHT22;33304;52.456;13.328;2023-04-01T12:54:59;9.90;60.70
47576;DHT22;33304;52.456;13.328;2023-04-01T12:57:45;9.80;61.00
47576;DHT22;33304;52.456;13.328;2023-04-01T13:00:31;9.80;63.00
47576;DHT22;33304;52.456;13.328;2023-04-01T13:03:15;9.70;61.40
47576;DHT22;33304;52.456;13.328;2023-04-01T13:06:04;9.80;62.40
47576;DHT22;33304;52.456;13.328;2023-04-01T13:08:38;9.90;62.60
47576;DHT22;33304;52.456;13.328;2023-04-01T13:11:10;9.90;62.40
47576;DHT22;33304;52.456;13.328;2023-04-01T13:13:56;9.80;63.40
47576;DHT22;33304;52.456;13.328;2023-04-01T13:16:29;9.90;63.90
47576;DHT22;33304;52.456;13.328;2023-04-01T13:19:03;9.80;62.40
47576;DHT22;33304;52.456;13.328;2023-04-01T13:21:45;9.80;62.50
47576;DHT22;33304;52.456;13.328;2023-04-01T13:24:25;9.80;63.20
47576;DHT22;33304;52.456;13.328;2023-04-01T13:27:00;9.80;63.00
47576;DHT22;33304;52.456;13.328;2023-04-01T13:29:32;9.80;63.10
47576;DHT22;33304;52.456;13.328;2023-04-01T13:32:10;9.70;61.90
47576;DHT22;33304;52.456;13.328;2023-04-01T13:34:52;9.70;60.70
47576;DHT22;33304;52.456;13.328;2023-04-01T13:37:32;9.70;62.10
47576;DHT22;33304;52.456;13.328;2023-04-01T13:40:26;9.60;61.30
47576;DHT22;33304;52.456;13.328;2023-04-01T13:42:57;9.50;63.60
47576;DHT22;33304;52.456;13.328;2023-04-01T13:45:26;9.40;62.70
47576;DHT22;33304;52.456;13.328;2023-04-01T13:48:22;9.40;63.30
47576;DHT22;33304;52.456;13.328;2023-04-01T13:54:04;9.50;63.60
47576;DHT22;33304;52.456;13.328;2023-04-01T13:56:41;9.40;62.90
47576;DHT22;33304;52.456;13.328;2023-04-01T13:59:30;9.40;63.60
47576;DHT22;33304;52.456;13.328;2023-04-01T14:02:15;9.40;64.30
47576;DHT22;33304;52.456;13.328;2023-04-01T14:04:53;9.30;61.70
47576;DHT22;33304;52.456;13.328;2023-04-01T14:07:40;9.30;62.60
47576;DHT22;33304;52.456;13.328;2023-04-01T14:10:18;9.20;62.20
47576;DHT22;33304;52.456;13.328;2023-04-01T14:12:54;9.00;60.50
47576;DHT22;33304;52.456;13.328;2023-04-01T14:15:45;9.00;61.90
47576;DHT22;33304;52.456;13.328;2023-04-01T14:18:26;9.00;61.90
47576;DHT22;33304;52.456;13.328;2023-04-01T14:21:02;8.90;60.40
47576;DHT22;33304;52.456;13.328;2023-04-01T14:23:52;8.90;59.30
47576;DHT22;33304;52.456;13.328;2023-04-01T14:26:35;8.90;59.10
47576;DHT22;33304;52.456;13.328;2023-04-01T14:29:18;9.00;59.30
47576;DHT22;33304;52.456;13.328;2023-04-01T14:31:58;9.00;60.50
47576;DHT22;33304;52.456;13.328;2023-04-01T14:34:37;9.00;59.80
47576;DHT22;33304;52.456;13.328;2023-04-01T14:37:17;9.00;60.90
47576;DHT22;33304;52.456;13.328;2023-04-01T14:40:31;8.80;59.60
47576;DHT22;33304;52.456;13.328;2023-04-01T14:43:23;8.90;59.40
47576;DHT22;33304;52.456;13.328;2023-04-01T14:47:03;8.90;59.00
47576;DHT22;33304;52.456;13.328;2023-04-01T14:49:34;8.80;57.70
47576;DHT22;33304;52.456;13.328;2023-04-01T14:52:11;8.80;57.90
47576;DHT22;33304;52.456;13.328;2023-04-01T14:54:42;8.80;57.80
47576;DHT22;33304;52.456;13.328;2023-04-01T14:57:12;8.80;58.10
47576;DHT22;33304;52.456;13.328;2023-04-01T14:59:46;8.80;58.70
47576;DHT22;33304;52.456;13.328;2023-04-01T15:02:35;8.70;58.00
47576;DHT22;33304;52.456;13.328;2023-04-01T15:05:13;8.60;58.70
47576;DHT22;33304;52.456;13.328;2023-04-01T15:08:03;8.70;59.30
47576;DHT22;33304;52.456;13.328;2023-04-01T15:11:03;8.70;57.60
47576;DHT22;33304;52.456;13.328;2023-04-01T15:16:36;8.60;55.80
47576;DHT22;33304;52.456;13.328;2023-04-01T15:19:14;8.50;56.00
47576;DHT22;33304;52.456;13.328;2023-04-01T15:22:01;8.40;57.00
47576;DHT22;33304;52.456;13.328;2023-04-01T15:24:41;8.40;57.00
47576;DHT22;33304;52.456;13.328;2023-04-01T15:27:30;8.40;56.60
47576;DHT22;33304;52.456;13.328;2023-04-01T15:30:17;8.40;57.60
47576;DHT22;33304;52.456;13.328;2023-04-01T15:32:55;8.50;56.70
47576;DHT22;33304;52.456;13.328;2023-04-01T15:35:34;8.40;54.70
47576;DHT22;33304;52.456;13.328;2023-04-01T15:38:08;8.30;55.70
47576;DHT22;33304;52.456;13.328;2023-04-01T15:40:43;8.30;55.70
47576;DHT22;33304;52.456;13.328;2023-04-01T15:43:21;8.30;55.50
47576;DHT22;33304;52.456;13.328;2023-04-01T15:45:58;8.20;55.90
47576;DHT22;33304;52.456;13.328;2023-04-01T15:48:39;8.20;55.10
47576;DHT22;33304;52.456;13.328;2023-04-01T15:51:14;8.20;55.40
47576;DHT22;33304;52.456;13.328;2023-04-01T15:54:01;8.20;55.70
47576;DHT22;33304;52.456;13.328;2023-04-01T15:56:45;8.10;53.80
47576;DHT22;33304;52.456;13.328;2023-04-01T15:59:23;8.10;53.80
47576;DHT22;33304;52.456;13.328;2023-04-01T16:01:59;8.10;54.80
47576;DHT22;33304;52.456;13.328;2023-04-01T16:04:48;8.10;55.40
47576;DHT22;33304;52.456;13.328;2023-04-01T16:07:37;8.20;53.80
47576;DHT22;33304;52.456;13.328;2023-04-01T16:10:32;8.20;53.90
47576;DHT22;33304;52.456;13.328;2023-04-01T16:13:19;8.20;53.40
47576;DHT22;33304;52.456;13.328;2023-04-01T16:15:56;8.30;52.90
47576;DHT22;33304;52.456;13.328;2023-04-01T16:18:46;8.20;52.60
47576;DHT22;33304;52.456;13.328;2023-04-01T16:21:27;8.20;53.60
47576;DHT22;33304;52.456;13.328;2023-04-01T16:24:10;8.20;53.30
47576;DHT22;33304;52.456;13.328;2023-04-01T16:26:44;8.20;53.80
47576;DHT22;33304;52.456;13.328;2023-04-01T16:29:22;8.20;55.30
47576;DHT22;33304;52.456;13.328;2023-04-01T16:31:55;8.20;55.20
47576;DHT22;33304;52.456;13.328;2023-04-01T16:34:30;8.10;53.80
47576;DHT22;33304;52.456;13.328;2023-04-01T16:37:05;8.10;53.80
47576;DHT22;33304;52.456;13.328;2023-04-01T16:39:44;8.10;55.00
47576;DHT22;33304;52.456;13.328;2023-04-01T16:42:22;8.10;55.60
47576;DHT22;33304;52.456;13.328;2023-04-01T16:44:55;8.00;55.40
47576;DHT22;33304;52.456;13.328;2023-04-01T16:47:30;7.90;55.20
47576;DHT22;33304;52.456;13.328;2023-04-01T16:50:06;7.90;54.30
47576;DHT22;33304;52.456;13.328;2023-04-01T16:52:53;7.80;54.70
47576;DHT22;33304;52.456;13.328;2023-04-01T16:55:35;7.70;55.90
47576;DHT22;33304;52.456;13.328;2023-04-01T16:58:02;7.70;54.80
47576;DHT22;33304;52.456;13.328;2023-04-01T17:00:37;7.70;55.50
47576;DHT22;33304;52.456;13.328;2023-04-01T17:03:12;7.70;55.40
47576;DHT22;33304;52.456;13.328;2023-04-01T17:05:52;7.60;55.20
47576;DHT22;33304;52.456;13.328;2023-04-01T17:08:30;7.50;54.70
47576;DHT22;33304;52.456;13.328;2023-04-01T17:11:08;7.40;54.50
47576;DHT22;33304;52.456;13.328;2023-04-01T17:13:44;7.30;55.10
47576;DHT22;33304;52.456;13.328;2023-04-01T17:16:26;7.30;55.10
47576;DHT22;33304;52.456;13.328;2023-04-01T17:19:03;7.30;55.50
47576;DHT22;33304;52.456;13.328;2023-04-01T17:21:48;7.30;56.60
47576;DHT22;33304;52.456;13.328;2023-04-01T17:24:30;7.30;57.40
47576;DHT22;33304;52.456;13.328;2023-04-01T17:27:06;7.20;57.60
47576;DHT22;33304;52.456;13.328;2023-04-01T17:29:46;7.20;57.50